PWSweather.com
Personal Weather Stations
Station Observations
DW1039
Liberty & Fairfield Townships, Hamilton, OH 45011

Liberty & Fairfield TownshipsHamilton, OH 45011

Lat: 39.3933, Lon: -84.477

Elevation: 780

Station Type: Davis Vantage Pro2 (Daytime Fan Aspirated)

http://www.lfweathercenter.com/

High Low Average
Temperature 68.3°F20.2°F 57.3°F14.1°F 61.1°F16.2°F
Dew Point 62.9°F17.2°F 54.1°F12.3°F 56.9°F13.8°F
Winds 11.0 mph WSW17.7 mph WSW Calm Calm 2.0 mph 3.2 mph
Wind Gusts 24.0 mph38.6 mph -- 7.8 mph12.6 mph
Humidity 89% 79% 86%
Pressure 29.76 in1007.80 in 29.36 in994.20 in -
Precipitation 2.76 in70.10 in - -
Hour Temp Dew Point Humidity Winds Wind Gusts Pressure Precip Precip Rate Daily Precip Total
12:00 AM 59.2°F15.1°C 55.7°F13.2°C 88% Calm Calm -- 29.36 in994.2 mb 0.01 in0.3 mm 0.00 in0.0 mm 0.01 in0.3 mm
12:10 AM 59.3°F15.2°C 55.8°F13.2°C 88% Calm Calm -- 29.36 in994.2 mb 0.01 in0.3 mm 0.00 in0.0 mm 0.01 in0.3 mm
12:20 AM 59.2°F15.1°C 55.7°F13.2°C 88% Calm Calm 2.0 mph3.2 kmh 29.37 in994.6 mb 0.01 in0.3 mm 0.00 in0.0 mm 0.01 in0.3 mm
12:30 AM 59.1°F15.1°C 55.6°F13.1°C 88% Calm Calm 4.0 mph6.4 kmh 29.37 in994.6 mb 0.01 in0.3 mm 0.00 in0.0 mm 0.01 in0.3 mm
12:40 AM 59.1°F15.1°C 55.6°F13.1°C 88% Calm Calm 5.0 mph8.0 kmh 29.37 in994.6 mb 0.01 in0.3 mm 0.00 in0.0 mm 0.01 in0.3 mm
12:50 AM 59.1°F15.1°C 55.6°F13.1°C 88% Calm Calm 6.0 mph9.7 kmh 29.37 in994.6 mb 0.00 in0.0 mm 0.00 in0.0 mm 0.01 in0.3 mm
01:00 AM 59.1°F15.1°C 55.6°F13.1°C 88% Calm Calm 3.0 mph4.8 kmh 29.37 in994.6 mb 0.00 in0.0 mm 0.00 in0.0 mm 0.01 in0.3 mm
01:10 AM 59.1°F15.1°C 55.6°F13.1°C 88% Calm Calm 6.0 mph9.7 kmh 29.37 in994.6 mb 0.00 in0.0 mm 0.00 in0.0 mm 0.01 in0.3 mm
01:20 AM 59.0°F15.0°C 55.5°F13.1°C 88% Calm Calm 7.0 mph11.3 kmh 29.37 in994.6 mb 0.00 in0.0 mm 0.00 in0.0 mm 0.01 in0.3 mm
01:30 AM 59.0°F15.0°C 55.5°F13.1°C 88% Calm Calm 6.0 mph9.7 kmh 29.37 in994.6 mb 0.00 in0.0 mm 0.00 in0.0 mm 0.01 in0.3 mm
01:40 AM 59.1°F15.1°C 55.6°F13.1°C 88% Calm Calm 6.0 mph9.7 kmh 29.37 in994.6 mb 0.00 in0.0 mm 0.00 in0.0 mm 0.01 in0.3 mm
01:50 AM 59.1°F15.1°C 55.6°F13.1°C 88% Calm Calm 6.0 mph9.7 kmh 29.37 in994.6 mb 0.00 in0.0 mm 0.00 in0.0 mm 0.01 in0.3 mm
02:00 AM 59.0°F15.0°C 55.5°F13.1°C 88% Calm Calm 4.0 mph6.4 kmh 29.37 in994.6 mb 0.00 in0.0 mm 0.00 in0.0 mm 0.01 in0.3 mm
02:10 AM 59.0°F15.0°C 55.5°F13.1°C 88% Calm Calm 4.0 mph6.4 kmh 29.37 in994.6 mb 0.01 in0.3 mm 0.06 in1.5 mm 0.02 in0.5 mm
02:20 AM 58.9°F14.9°C 55.4°F13.0°C 88% Calm Calm 4.0 mph6.4 kmh 29.37 in994.6 mb 0.01 in0.3 mm 0.00 in0.0 mm 0.02 in0.5 mm
02:30 AM 58.9°F14.9°C 55.4°F13.0°C 88% Calm Calm 6.0 mph9.7 kmh 29.37 in994.6 mb 0.01 in0.3 mm 0.00 in0.0 mm 0.02 in0.5 mm
02:40 AM 58.9°F14.9°C 55.4°F13.0°C 88% Calm Calm 4.0 mph6.4 kmh 29.37 in994.6 mb 0.01 in0.3 mm 0.00 in0.0 mm 0.02 in0.5 mm
02:50 AM 58.8°F14.9°C 55.3°F12.9°C 88% Calm Calm 5.0 mph8.0 kmh 29.37 in994.6 mb 0.01 in0.3 mm 0.00 in0.0 mm 0.02 in0.5 mm
03:00 AM 58.8°F14.9°C 55.3°F12.9°C 88% Calm Calm 5.0 mph8.0 kmh 29.37 in994.6 mb 0.01 in0.3 mm 0.00 in0.0 mm 0.02 in0.5 mm
03:10 AM 58.7°F14.8°C 55.2°F12.9°C 88% 3.0 mph SSW4.8 kmh SSW 7.0 mph11.3 kmh 29.36 in994.2 mb 0.00 in0.0 mm 0.00 in0.0 mm 0.02 in0.5 mm
03:20 AM 58.7°F14.8°C 55.2°F12.9°C 88% Calm Calm 6.0 mph9.7 kmh 29.37 in994.6 mb 0.00 in0.0 mm 0.00 in0.0 mm 0.02 in0.5 mm
03:30 AM 58.7°F14.8°C 55.5°F13.1°C 89% 1.0 mph SW1.6 kmh SW 4.0 mph6.4 kmh 29.37 in994.6 mb 0.00 in0.0 mm 0.00 in0.0 mm 0.02 in0.5 mm
03:40 AM 58.6°F14.8°C 55.1°F12.8°C 88% Calm Calm 4.0 mph6.4 kmh 29.37 in994.6 mb 0.00 in0.0 mm 0.00 in0.0 mm 0.02 in0.5 mm
03:50 AM 58.6°F14.8°C 55.1°F12.8°C 88% Calm Calm 5.0 mph8.0 kmh 29.37 in994.6 mb 0.00 in0.0 mm 0.00 in0.0 mm 0.02 in0.5 mm
04:00 AM 58.6°F14.8°C 55.1°F12.8°C 88% 2.0 mph SW3.2 kmh SW 5.0 mph8.0 kmh 29.37 in994.6 mb 0.01 in0.3 mm 0.01 in0.3 mm 0.03 in0.8 mm
04:10 AM 58.5°F14.7°C 55.0°F12.8°C 88% Calm Calm 4.0 mph6.4 kmh 29.37 in994.6 mb 0.01 in0.3 mm 0.00 in0.0 mm 0.03 in0.8 mm
04:20 AM 58.5°F14.7°C 55.0°F12.8°C 88% Calm Calm 4.0 mph6.4 kmh 29.37 in994.6 mb 0.02 in0.5 mm 0.06 in1.5 mm 0.04 in1.0 mm
04:30 AM 58.6°F14.8°C 55.1°F12.8°C 88% Calm Calm 2.0 mph3.2 kmh 29.37 in994.6 mb 0.02 in0.5 mm 0.00 in0.0 mm 0.04 in1.0 mm
04:40 AM 58.6°F14.8°C 55.1°F12.8°C 88% Calm Calm 4.0 mph6.4 kmh 29.37 in994.6 mb 0.02 in0.5 mm 0.00 in0.0 mm 0.04 in1.0 mm
04:50 AM 58.6°F14.8°C 55.1°F12.8°C 88% Calm Calm 3.0 mph4.8 kmh 29.37 in994.6 mb 0.02 in0.5 mm 0.00 in0.0 mm 0.04 in1.0 mm
05:00 AM 58.5°F14.7°C 55.0°F12.8°C 88% Calm Calm 3.0 mph4.8 kmh 29.37 in994.6 mb 0.02 in0.5 mm 0.00 in0.0 mm 0.04 in1.0 mm
05:10 AM 58.4°F14.7°C 54.9°F12.7°C 88% Calm Calm 7.0 mph11.3 kmh 29.37 in994.6 mb 0.02 in0.5 mm 0.00 in0.0 mm 0.04 in1.0 mm
05:20 AM 58.4°F14.7°C 55.2°F12.9°C 89% Calm Calm 5.0 mph8.0 kmh 29.37 in994.6 mb 0.01 in0.3 mm 0.00 in0.0 mm 0.04 in1.0 mm
05:30 AM 58.4°F14.7°C 55.2°F12.9°C 89% 1.0 mph SW1.6 kmh SW 4.0 mph6.4 kmh 29.37 in994.6 mb 0.01 in0.3 mm 0.00 in0.0 mm 0.04 in1.0 mm
05:40 AM 58.3°F14.6°C 55.1°F12.8°C 89% 6.0 mph SSW9.7 kmh SSW 7.0 mph11.3 kmh 29.37 in994.6 mb 0.01 in0.3 mm 0.00 in0.0 mm 0.04 in1.0 mm
05:50 AM 58.3°F14.6°C 55.1°F12.8°C 89% Calm Calm 5.0 mph8.0 kmh 29.37 in994.6 mb 0.02 in0.5 mm 0.06 in1.5 mm 0.05 in1.3 mm
06:00 AM 58.2°F14.6°C 55.0°F12.8°C 89% 1.0 mph S1.6 kmh S 10.0 mph16.1 kmh 29.37 in994.6 mb 0.03 in0.8 mm 0.01 in0.3 mm 0.06 in1.5 mm
06:10 AM 58.1°F14.5°C 54.9°F12.7°C 89% 3.0 mph SW4.8 kmh SW 11.0 mph17.7 kmh 29.36 in994.2 mb 0.04 in1.0 mm 0.06 in1.5 mm 0.07 in1.8 mm
06:20 AM 58.1°F14.5°C 54.9°F12.7°C 89% 4.0 mph SSW6.4 kmh SSW 8.0 mph12.9 kmh 29.37 in994.6 mb 0.05 in1.3 mm 0.06 in1.5 mm 0.08 in2.0 mm
06:30 AM 58.0°F14.4°C 54.8°F12.7°C 89% Calm Calm 10.0 mph16.1 kmh 29.37 in994.6 mb 0.06 in1.5 mm 0.06 in1.5 mm 0.09 in2.3 mm
06:40 AM 58.0°F14.4°C 54.8°F12.7°C 89% Calm Calm 4.0 mph6.4 kmh 29.38 in994.9 mb 0.07 in1.8 mm 0.06 in1.5 mm 0.10 in2.5 mm
06:50 AM 57.9°F14.4°C 54.7°F12.6°C 89% Calm Calm 6.0 mph9.7 kmh 29.38 in994.9 mb 0.07 in1.8 mm 0.00 in0.0 mm 0.10 in2.5 mm
07:00 AM 57.8°F14.3°C 54.6°F12.6°C 89% Calm Calm 6.0 mph9.7 kmh 29.38 in994.9 mb 0.08 in2.0 mm 0.01 in0.3 mm 0.11 in2.8 mm
07:10 AM 57.7°F14.3°C 54.5°F12.5°C 89% 3.0 mph SW4.8 kmh SW 7.0 mph11.3 kmh 29.38 in994.9 mb 0.07 in1.8 mm 0.00 in0.0 mm 0.11 in2.8 mm
07:20 AM 57.7°F14.3°C 54.5°F12.5°C 89% 1.0 mph SSW1.6 kmh SSW 4.0 mph6.4 kmh 29.38 in994.9 mb 0.10 in2.5 mm 0.18 in4.6 mm 0.14 in3.6 mm
07:30 AM 57.7°F14.3°C 54.5°F12.5°C 89% Calm Calm 6.0 mph9.7 kmh 29.39 in995.3 mb 0.10 in2.5 mm 0.00 in0.0 mm 0.14 in3.6 mm
07:40 AM 57.7°F14.3°C 54.5°F12.5°C 89% Calm Calm 4.0 mph6.4 kmh 29.38 in994.9 mb 0.10 in2.5 mm 0.00 in0.0 mm 0.14 in3.6 mm
07:50 AM 57.6°F14.2°C 54.4°F12.4°C 89% Calm Calm 5.0 mph8.0 kmh 29.38 in994.9 mb 0.09 in2.3 mm 0.00 in0.0 mm 0.14 in3.6 mm
08:00 AM 57.6°F14.2°C 54.4°F12.4°C 89% 1.0 mph SSW1.6 kmh SSW 7.0 mph11.3 kmh 29.39 in995.3 mb 0.08 in2.0 mm 0.00 in0.0 mm 0.14 in3.6 mm
08:10 AM 57.5°F14.2°C 54.3°F12.4°C 89% Calm Calm 4.0 mph6.4 kmh 29.39 in995.3 mb 0.07 in1.8 mm 0.00 in0.0 mm 0.14 in3.6 mm
08:20 AM 57.3°F14.1°C 54.1°F12.3°C 89% Calm Calm 5.0 mph8.0 kmh 29.39 in995.3 mb 0.07 in1.8 mm 0.00 in0.0 mm 0.14 in3.6 mm
08:30 AM 57.3°F14.1°C 54.1°F12.3°C 89% Calm Calm -- 29.40 in995.6 mb 0.08 in2.0 mm 0.06 in1.5 mm 0.15 in3.8 mm
08:40 AM 57.5°F14.2°C 54.3°F12.4°C 89% Calm Calm -- 29.40 in995.6 mb 0.08 in2.0 mm 0.00 in0.0 mm 0.15 in3.8 mm
08:50 AM 57.8°F14.3°C 54.6°F12.6°C 89% Calm Calm -- 29.40 in995.6 mb 0.08 in2.0 mm 0.00 in0.0 mm 0.15 in3.8 mm
09:00 AM 58.0°F14.4°C 54.8°F12.7°C 89% 2.0 mph SW3.2 kmh SW 4.0 mph6.4 kmh 29.40 in995.6 mb 0.07 in1.8 mm 0.00 in0.0 mm 0.15 in3.8 mm
09:10 AM 58.1°F14.5°C 54.9°F12.7°C 89% Calm Calm 4.0 mph6.4 kmh 29.40 in995.6 mb 0.07 in1.8 mm 0.00 in0.0 mm 0.15 in3.8 mm
09:20 AM 58.2°F14.6°C 55.0°F12.8°C 89% Calm Calm 3.0 mph4.8 kmh 29.40 in995.6 mb 0.03 in0.8 mm 0.00 in0.0 mm 0.15 in3.8 mm
09:30 AM 58.2°F14.6°C 55.0°F12.8°C 89% Calm Calm -- 29.41 in995.9 mb 0.01 in0.3 mm 0.00 in0.0 mm 0.15 in3.8 mm
09:40 AM 58.4°F14.7°C 55.2°F12.9°C 89% Calm Calm 3.0 mph4.8 kmh 29.41 in995.9 mb 0.00 in0.0 mm 0.00 in0.0 mm 0.15 in3.8 mm
09:50 AM 58.6°F14.8°C 55.4°F13.0°C 89% Calm Calm 2.0 mph3.2 kmh 29.42 in996.3 mb 0.00 in0.0 mm 0.00 in0.0 mm 0.15 in3.8 mm
10:00 AM 59.0°F15.0°C 55.8°F13.2°C 89% Calm Calm 1.0 mph1.6 kmh 29.42 in996.3 mb 0.00 in0.0 mm 0.00 in0.0 mm 0.15 in3.8 mm
10:10 AM 59.5°F15.3°C 56.3°F13.5°C 89% Calm Calm 2.0 mph3.2 kmh 29.42 in996.3 mb 0.00 in0.0 mm 0.00 in0.0 mm 0.15 in3.8 mm
10:20 AM 60.3°F15.7°C 57.1°F13.9°C 89% Calm Calm -- 29.42 in996.3 mb 0.00 in0.0 mm 0.00 in0.0 mm 0.15 in3.8 mm
10:30 AM 60.2°F15.7°C 57.0°F13.9°C 89% Calm Calm 2.0 mph3.2 kmh 29.43 in996.6 mb 0.00 in0.0 mm 0.00 in0.0 mm 0.15 in3.8 mm
10:40 AM 60.4°F15.8°C 57.2°F14.0°C 89% Calm Calm 4.0 mph6.4 kmh 29.43 in996.6 mb 0.00 in0.0 mm 0.00 in0.0 mm 0.15 in3.8 mm
10:50 AM 60.9°F16.1°C 57.6°F14.2°C 89% Calm Calm 4.0 mph6.4 kmh 29.43 in996.6 mb 0.00 in0.0 mm 0.00 in0.0 mm 0.15 in3.8 mm
11:00 AM 60.7°F15.9°C 57.1°F13.9°C 88% Calm Calm 5.0 mph8.0 kmh 29.43 in996.6 mb 0.00 in0.0 mm 0.00 in0.0 mm 0.15 in3.8 mm
11:10 AM 61.7°F16.5°C 58.1°F14.5°C 88% 2.0 mph W3.2 kmh W 4.0 mph6.4 kmh 29.43 in996.6 mb 0.00 in0.0 mm 0.00 in0.0 mm 0.15 in3.8 mm
11:20 AM 63.1°F17.3°C 59.5°F15.3°C 88% Calm Calm 3.0 mph4.8 kmh 29.43 in996.6 mb 0.00 in0.0 mm 0.00 in0.0 mm 0.15 in3.8 mm
11:30 AM 64.1°F17.8°C 60.2°F15.7°C 87% Calm Calm 4.0 mph6.4 kmh 29.43 in996.6 mb 0.00 in0.0 mm 0.00 in0.0 mm 0.15 in3.8 mm
11:40 AM 65.1°F18.4°C 60.5°F15.8°C 85% Calm Calm 3.0 mph4.8 kmh 29.44 in997.0 mb 0.00 in0.0 mm 0.00 in0.0 mm 0.15 in3.8 mm
11:50 AM 65.1°F18.4°C 59.8°F15.4°C 83% 3.0 mph NW4.8 kmh NW 3.0 mph4.8 kmh 29.44 in997.0 mb 0.00 in0.0 mm 0.00 in0.0 mm 0.15 in3.8 mm
12:00 PM 65.2°F18.4°C 59.9°F15.5°C 83% Calm Calm 3.0 mph4.8 kmh 29.44 in997.0 mb 0.00 in0.0 mm 0.00 in0.0 mm 0.15 in3.8 mm
12:10 PM 66.3°F19.1°C 60.7°F15.9°C 82% Calm Calm 4.0 mph6.4 kmh 29.44 in997.0 mb 0.00 in0.0 mm 0.00 in0.0 mm 0.15 in3.8 mm
12:20 PM 66.4°F19.1°C 59.7°F15.4°C 79% Calm Calm 4.0 mph6.4 kmh 29.44 in997.0 mb 0.00 in0.0 mm 0.00 in0.0 mm 0.15 in3.8 mm
12:30 PM 66.0°F18.9°C 59.3°F15.2°C 79% 5.0 mph W8.0 kmh W 6.0 mph9.7 kmh 29.45 in997.3 mb 0.00 in0.0 mm 0.00 in0.0 mm 0.15 in3.8 mm
12:40 PM 66.0°F18.9°C 60.0°F15.6°C 81% 3.0 mph W4.8 kmh W 7.0 mph11.3 kmh 29.45 in997.3 mb 0.00 in0.0 mm 0.00 in0.0 mm 0.15 in3.8 mm
12:50 PM 66.3°F19.1°C 60.3°F15.7°C 81% 6.0 mph NNW9.7 kmh NNW 6.0 mph9.7 kmh 29.46 in997.6 mb 0.00 in0.0 mm 0.00 in0.0 mm 0.15 in3.8 mm
01:00 PM 66.9°F19.4°C 60.9°F16.1°C 81% 6.0 mph WSW9.7 kmh WSW 9.0 mph14.5 kmh 29.46 in997.6 mb 0.00 in0.0 mm 0.00 in0.0 mm 0.15 in3.8 mm
01:10 PM 68.0°F20.0°C 61.6°F16.4°C 80% 6.0 mph W9.7 kmh W 9.0 mph14.5 kmh 29.45 in997.3 mb 0.00 in0.0 mm 0.00 in0.0 mm 0.15 in3.8 mm
01:20 PM 67.8°F19.9°C 61.1°F16.2°C 79% 2.0 mph W3.2 kmh W 11.0 mph17.7 kmh 29.46 in997.6 mb 0.00 in0.0 mm 0.00 in0.0 mm 0.15 in3.8 mm
01:30 PM 68.1°F20.1°C 61.4°F16.3°C 79% Calm Calm 15.0 mph24.1 kmh 29.47 in998.0 mb 0.00 in0.0 mm 0.00 in0.0 mm 0.15 in3.8 mm
01:40 PM 67.2°F19.6°C 60.8°F16.0°C 80% 6.0 mph WSW9.7 kmh WSW 16.0 mph25.7 kmh 29.47 in998.0 mb 0.00 in0.0 mm 0.00 in0.0 mm 0.15 in3.8 mm
01:50 PM 66.9°F19.4°C 60.9°F16.1°C 81% 3.0 mph WNW4.8 kmh WNW 13.0 mph20.9 kmh 29.47 in998.0 mb 0.00 in0.0 mm 0.00 in0.0 mm 0.15 in3.8 mm
02:00 PM 66.3°F19.1°C 60.7°F15.9°C 82% 4.0 mph WSW6.4 kmh WSW 14.0 mph22.5 kmh 29.48 in998.3 mb 0.00 in0.0 mm 0.00 in0.0 mm 0.15 in3.8 mm
02:10 PM 65.7°F18.7°C 60.4°F15.8°C 83% 7.0 mph WSW11.3 kmh WSW 14.0 mph22.5 kmh 29.48 in998.3 mb 0.00 in0.0 mm 0.00 in0.0 mm 0.15 in3.8 mm
02:20 PM 66.8°F19.3°C 61.8°F16.6°C 84% 6.0 mph W9.7 kmh W 14.0 mph22.5 kmh 29.48 in998.3 mb 0.00 in0.0 mm 0.00 in0.0 mm 0.15 in3.8 mm
02:30 PM 68.3°F20.2°C 62.9°F17.2°C 83% 2.0 mph WSW3.2 kmh WSW 11.0 mph17.7 kmh 29.48 in998.3 mb 0.00 in0.0 mm 0.00 in0.0 mm 0.15 in3.8 mm
02:40 PM 66.8°F19.3°C 60.8°F16.0°C 81% 6.0 mph WSW9.7 kmh WSW 14.0 mph22.5 kmh 29.49 in998.6 mb 0.00 in0.0 mm 0.00 in0.0 mm 0.15 in3.8 mm
02:50 PM 64.6°F18.1°C 59.7°F15.4°C 84% Calm Calm 15.0 mph24.1 kmh 29.49 in998.6 mb 0.10 in2.5 mm 0.60 in15.2 mm 0.25 in6.4 mm
03:00 PM 64.0°F17.8°C 59.7°F15.4°C 86% 6.0 mph WSW9.7 kmh WSW 13.0 mph20.9 kmh 29.49 in998.6 mb 0.10 in2.5 mm 0.00 in0.0 mm 0.25 in6.4 mm
03:10 PM 63.4°F17.4°C 59.2°F15.1°C 86% 5.0 mph WSW8.0 kmh WSW 13.0 mph20.9 kmh 29.50 in999.0 mb 0.15 in3.8 mm 0.30 in7.6 mm 0.30 in7.6 mm
03:20 PM 63.3°F17.4°C 59.1°F15.1°C 86% 4.0 mph SSW6.4 kmh SSW 9.0 mph14.5 kmh 29.50 in999.0 mb 0.15 in3.8 mm 0.00 in0.0 mm 0.30 in7.6 mm
03:30 PM 64.2°F17.9°C 60.3°F15.7°C 87% 4.0 mph WSW6.4 kmh WSW 13.0 mph20.9 kmh 29.50 in999.0 mb 0.15 in3.8 mm 0.00 in0.0 mm 0.30 in7.6 mm
03:40 PM 65.2°F18.4°C 60.9°F16.1°C 86% Calm Calm 15.0 mph24.1 kmh 29.51 in999.3 mb 0.15 in3.8 mm 0.00 in0.0 mm 0.30 in7.6 mm
03:50 PM 64.6°F18.1°C 60.3°F15.7°C 86% 4.0 mph W6.4 kmh W 16.0 mph25.7 kmh 29.52 in999.7 mb 0.05 in1.3 mm 0.00 in0.0 mm 0.30 in7.6 mm
04:00 PM 63.7°F17.6°C 59.4°F15.2°C 86% 10.0 mph W16.1 kmh W 24.0 mph38.6 kmh 29.53 in1000.0 mb 0.05 in1.3 mm 0.00 in0.0 mm 0.30 in7.6 mm
04:10 PM 62.8°F17.1°C 58.6°F14.8°C 86% 11.0 mph WSW17.7 kmh WSW 18.0 mph29.0 kmh 29.53 in1000.0 mb 0.00 in0.0 mm 0.00 in0.0 mm 0.30 in7.6 mm
04:20 PM 62.2°F16.8°C 58.0°F14.4°C 86% 6.0 mph WNW9.7 kmh WNW 19.0 mph30.6 kmh 29.54 in1000.3 mb 0.01 in0.3 mm 0.06 in1.5 mm 0.31 in7.9 mm
04:30 PM 62.1°F16.7°C 57.9°F14.4°C 86% 3.0 mph W4.8 kmh W 16.0 mph25.7 kmh 29.55 in1000.7 mb 0.01 in0.3 mm 0.00 in0.0 mm 0.31 in7.9 mm
04:40 PM 62.1°F16.7°C 57.9°F14.4°C 86% 5.0 mph SW8.0 kmh SW 17.0 mph27.4 kmh 29.56 in1001.0 mb 0.01 in0.3 mm 0.00 in0.0 mm 0.31 in7.9 mm
04:50 PM 62.0°F16.7°C 57.8°F14.3°C 86% 6.0 mph W9.7 kmh W 15.0 mph24.1 kmh 29.56 in1001.0 mb 0.01 in0.3 mm 0.00 in0.0 mm 0.31 in7.9 mm
05:00 PM 62.0°F16.7°C 57.8°F14.3°C 86% 1.0 mph NW1.6 kmh NW 13.0 mph20.9 kmh 29.56 in1001.0 mb 0.01 in0.3 mm 0.00 in0.0 mm 0.31 in7.9 mm
05:10 PM 62.1°F16.7°C 57.9°F14.4°C 86% 4.0 mph WNW6.4 kmh WNW 12.0 mph19.3 kmh 29.57 in1001.4 mb 0.01 in0.3 mm 0.00 in0.0 mm 0.31 in7.9 mm
05:20 PM 62.0°F16.7°C 57.8°F14.3°C 86% Calm Calm 11.0 mph17.7 kmh 29.58 in1001.7 mb 0.00 in0.0 mm 0.00 in0.0 mm 0.31 in7.9 mm
05:30 PM 62.0°F16.7°C 57.8°F14.3°C 86% 8.0 mph W12.9 kmh W 11.0 mph17.7 kmh 29.58 in1001.7 mb 0.00 in0.0 mm 0.00 in0.0 mm 0.31 in7.9 mm
05:40 PM 61.8°F16.6°C 57.6°F14.2°C 86% Calm Calm 14.0 mph22.5 kmh 29.59 in1002.0 mb 0.00 in0.0 mm 0.00 in0.0 mm 0.31 in7.9 mm
05:50 PM 61.8°F16.6°C 57.6°F14.2°C 86% 3.0 mph NW4.8 kmh NW 6.0 mph9.7 kmh 29.59 in1002.0 mb 0.00 in0.0 mm 0.00 in0.0 mm 0.31 in7.9 mm
06:00 PM 61.8°F16.6°C 57.6°F14.2°C 86% 11.0 mph NW17.7 kmh NW 12.0 mph19.3 kmh 29.60 in1002.4 mb 0.00 in0.0 mm 0.00 in0.0 mm 0.31 in7.9 mm
06:10 PM 61.6°F16.4°C 57.1°F13.9°C 85% Calm Calm 13.0 mph20.9 kmh 29.60 in1002.4 mb 0.00 in0.0 mm 0.00 in0.0 mm 0.31 in7.9 mm
06:20 PM 61.7°F16.5°C 57.2°F14.0°C 85% 10.0 mph WSW16.1 kmh WSW 13.0 mph20.9 kmh 29.60 in1002.4 mb 0.00 in0.0 mm 0.00 in0.0 mm 0.31 in7.9 mm
06:30 PM 62.0°F16.7°C 57.5°F14.2°C 85% 5.0 mph W8.0 kmh W 12.0 mph19.3 kmh 29.61 in1002.7 mb 0.00 in0.0 mm 0.00 in0.0 mm 0.31 in7.9 mm
06:40 PM 62.2°F16.8°C 57.6°F14.2°C 85% 8.0 mph WNW12.9 kmh WNW 14.0 mph22.5 kmh 29.61 in1002.7 mb 0.00 in0.0 mm 0.00 in0.0 mm 0.31 in7.9 mm
06:50 PM 62.2°F16.8°C 57.3°F14.1°C 84% Calm Calm 13.0 mph20.9 kmh 29.62 in1003.0 mb 0.00 in0.0 mm 0.00 in0.0 mm 0.31 in7.9 mm
07:00 PM 62.3°F16.8°C 57.4°F14.1°C 84% 4.0 mph W6.4 kmh W 14.0 mph22.5 kmh 29.62 in1003.0 mb 0.00 in0.0 mm 0.00 in0.0 mm 0.31 in7.9 mm
07:10 PM 62.3°F16.8°C 57.4°F14.1°C 84% 9.0 mph WNW14.5 kmh WNW 16.0 mph25.7 kmh 29.63 in1003.4 mb 0.00 in0.0 mm 0.00 in0.0 mm 0.31 in7.9 mm
07:20 PM 62.1°F16.7°C 56.9°F13.8°C 83% Calm Calm 15.0 mph24.1 kmh 29.63 in1003.4 mb 0.00 in0.0 mm 0.00 in0.0 mm 0.31 in7.9 mm
07:30 PM 62.0°F16.7°C 56.8°F13.8°C 83% Calm Calm 13.0 mph20.9 kmh 29.63 in1003.4 mb 0.00 in0.0 mm 0.00 in0.0 mm 0.31 in7.9 mm
07:40 PM 61.9°F16.6°C 56.7°F13.7°C 83% 6.0 mph W9.7 kmh W 11.0 mph17.7 kmh 29.64 in1003.7 mb 0.00 in0.0 mm 0.00 in0.0 mm 0.31 in7.9 mm
07:50 PM 61.8°F16.6°C 56.6°F13.7°C 83% 5.0 mph W8.0 kmh W 14.0 mph22.5 kmh 29.65 in1004.1 mb 0.00 in0.0 mm 0.00 in0.0 mm 0.31 in7.9 mm
08:00 PM 61.8°F16.6°C 56.6°F13.7°C 83% Calm Calm 9.0 mph14.5 kmh 29.65 in1004.1 mb 0.00 in0.0 mm 0.00 in0.0 mm 0.31 in7.9 mm
08:10 PM 61.7°F16.5°C 56.8°F13.8°C 84% 1.0 mph WNW1.6 kmh WNW 14.0 mph22.5 kmh 29.66 in1004.4 mb 0.00 in0.0 mm 0.00 in0.0 mm 0.31 in7.9 mm
08:20 PM 61.6°F16.4°C 56.7°F13.7°C 84% 4.0 mph W6.4 kmh W 10.0 mph16.1 kmh 29.66 in1004.4 mb 0.00 in0.0 mm 0.00 in0.0 mm 0.31 in7.9 mm
08:30 PM 61.6°F16.4°C 56.7°F13.7°C 84% 7.0 mph WNW11.3 kmh WNW 8.0 mph12.9 kmh 29.67 in1004.7 mb 0.00 in0.0 mm 0.00 in0.0 mm 0.31 in7.9 mm
08:40 PM 61.5°F16.4°C 56.6°F13.7°C 84% Calm Calm 11.0 mph17.7 kmh 29.67 in1004.7 mb 0.00 in0.0 mm 0.00 in0.0 mm 0.31 in7.9 mm
08:50 PM 61.5°F16.4°C 56.6°F13.7°C 84% 2.0 mph WNW3.2 kmh WNW 12.0 mph19.3 kmh 29.68 in1005.1 mb 0.00 in0.0 mm 0.00 in0.0 mm 0.31 in7.9 mm
09:00 PM 61.4°F16.3°C 56.5°F13.6°C 84% 3.0 mph W4.8 kmh W 14.0 mph22.5 kmh 29.68 in1005.1 mb 0.00 in0.0 mm 0.00 in0.0 mm 0.31 in7.9 mm
09:10 PM 61.4°F16.3°C 56.5°F13.6°C 84% 2.0 mph WSW3.2 kmh WSW 6.0 mph9.7 kmh 29.69 in1005.4 mb 0.00 in0.0 mm 0.00 in0.0 mm 0.31 in7.9 mm
09:20 PM 61.4°F16.3°C 56.5°F13.6°C 84% 2.0 mph W3.2 kmh W 9.0 mph14.5 kmh 29.69 in1005.4 mb 0.00 in0.0 mm 0.00 in0.0 mm 0.31 in7.9 mm
09:30 PM 61.4°F16.3°C 56.5°F13.6°C 84% Calm Calm 10.0 mph16.1 kmh 29.69 in1005.4 mb 0.00 in0.0 mm 0.00 in0.0 mm 0.31 in7.9 mm
09:40 PM 61.4°F16.3°C 56.5°F13.6°C 84% 5.0 mph WNW8.0 kmh WNW 9.0 mph14.5 kmh 29.70 in1005.8 mb 0.00 in0.0 mm 0.00 in0.0 mm 0.31 in7.9 mm
09:50 PM 61.3°F16.3°C 56.4°F13.6°C 84% 2.0 mph SW3.2 kmh SW 9.0 mph14.5 kmh 29.70 in1005.8 mb 0.00 in0.0 mm 0.00 in0.0 mm 0.31 in7.9 mm
10:00 PM 61.3°F16.3°C 56.4°F13.6°C 84% 1.0 mph W1.6 kmh W 10.0 mph16.1 kmh 29.71 in1006.1 mb 0.00 in0.0 mm 0.00 in0.0 mm 0.31 in7.9 mm
10:14 PM 61.3°F16.3°C 56.4°F13.6°C 84% 2.0 mph W3.2 kmh W 6.0 mph9.7 kmh 29.72 in1006.4 mb 0.00 in0.0 mm 0.00 in0.0 mm 0.31 in7.9 mm
10:20 PM 61.4°F16.3°C 56.5°F13.6°C 84% Calm Calm 6.0 mph9.7 kmh 29.72 in1006.4 mb 0.00 in0.0 mm 0.00 in0.0 mm 0.31 in7.9 mm
10:30 PM 61.4°F16.3°C 56.5°F13.6°C 84% Calm Calm 6.0 mph9.7 kmh 29.73 in1006.8 mb 0.00 in0.0 mm 0.00 in0.0 mm 0.31 in7.9 mm
10:40 PM 61.3°F16.3°C 56.4°F13.6°C 84% 4.0 mph WSW6.4 kmh WSW 5.0 mph8.0 kmh 29.73 in1006.8 mb 0.00 in0.0 mm 0.00 in0.0 mm 0.31 in7.9 mm
10:50 PM 61.2°F16.2°C 56.3°F13.5°C 84% Calm Calm 8.0 mph12.9 kmh 29.73 in1006.8 mb 0.00 in0.0 mm 0.00 in0.0 mm 0.31 in7.9 mm
11:00 PM 61.1°F16.2°C 56.2°F13.4°C 84% 3.0 mph WSW4.8 kmh WSW 13.0 mph20.9 kmh 29.74 in1007.1 mb 0.00 in0.0 mm 0.00 in0.0 mm 0.31 in7.9 mm
11:10 PM 60.9°F16.1°C 56.4°F13.6°C 85% 3.0 mph WSW4.8 kmh WSW 7.0 mph11.3 kmh 29.74 in1007.1 mb 0.00 in0.0 mm 0.00 in0.0 mm 0.31 in7.9 mm
11:20 PM 60.7°F15.9°C 56.2°F13.4°C 85% 3.0 mph WSW4.8 kmh WSW 7.0 mph11.3 kmh 29.74 in1007.1 mb 0.00 in0.0 mm 0.00 in0.0 mm 0.31 in7.9 mm
11:30 PM 60.8°F16.0°C 56.3°F13.5°C 85% 2.0 mph W3.2 kmh W 7.0 mph11.3 kmh 29.75 in1007.5 mb 0.00 in0.0 mm 0.00 in0.0 mm 0.31 in7.9 mm
11:40 PM 60.8°F16.0°C 56.3°F13.5°C 85% Calm Calm 7.0 mph11.3 kmh 29.76 in1007.8 mb 0.00 in0.0 mm 0.00 in0.0 mm 0.31 in7.9 mm
11:50 PM 60.7°F15.9°C 56.2°F13.4°C 85% 3.0 mph WSW4.8 kmh WSW 3.0 mph4.8 kmh 29.76 in1007.8 mb 0.00 in0.0 mm 0.00 in0.0 mm 0.31 in7.9 mm